EIKN/NOC METAR and TAF weather

Enter ICAO airport designator
Station Type Date Time Source
EIKN METAR 2021/02/26 11:30 UTC NOAA

EIKN 261130Z 19017KT 160V220 9999 FEW016 09/05 Q1032 NOSIG


Station Type Date Time Source
EIKN Decoded METAR 2021/02/26 11:30 UTC NOAA

Connaught, Ireland (EIKN) 53-54-37N 008-49-05W
Feb 26, 2021 - 06:30 AM EST / 2021.02.26 1130 UTC
Wind: from the S (190 degrees) at 20 MPH (17 KT) (direction variable):0
Visibility: greater than 7 mile(s):0
Sky conditions: mostly clear
Temperature: 48 F (9 C)
Dew Point: 41 F (5 C)
Relative Humidity: 75%
Pressure (altimeter): 30.47 in. Hg (1032 hPa)
ob: EIKN 261130Z 19017KT 160V220 9999 FEW016 09/05 Q1032 NOSIG
cycle: 11

Station Type Date Time Source
EIKN TAF 2021/02/26 12:45 UTC NOAA

TAF EIKN 261236Z 2612/2712 CNL

Example: see airport list